sensor_id;sensor_type;location;lat;lon;timestamp;temperature;humidity
49236;DHT22;35067;48.134;8.378;2023-01-31T00:01:32;1.40;99.90
49236;DHT22;35067;48.134;8.378;2023-01-31T00:03:34;1.20;99.90
49236;DHT22;35067;48.134;8.378;2023-01-31T00:05:35;1.10;99.90
49236;DHT22;35067;48.134;8.378;2023-01-31T00:07:36;1.10;99.90
49236;DHT22;35067;48.134;8.378;2023-01-31T00:09:37;1.10;99.90
49236;DHT22;35067;48.134;8.378;2023-01-31T00:11:37;1.10;99.90
49236;DHT22;35067;48.134;8.378;2023-01-31T00:13:38;0.90;99.90
49236;DHT22;35067;48.134;8.378;2023-01-31T00:15:39;0.80;99.90
49236;DHT22;35067;48.134;8.378;2023-01-31T00:17:40;0.80;99.90
49236;DHT22;35067;48.134;8.378;2023-01-31T00:19:41;0.90;99.90
49236;DHT22;35067;48.134;8.378;2023-01-31T00:21:42;1.00;99.90
49236;DHT22;35067;48.134;8.378;2023-01-31T00:23:45;1.10;99.90
49236;DHT22;35067;48.134;8.378;2023-01-31T00:25:47;1.20;99.90
49236;DHT22;35067;48.134;8.378;2023-01-31T00:27:47;1.30;99.90
49236;DHT22;35067;48.134;8.378;2023-01-31T00:29:48;1.40;99.90
49236;DHT22;35067;48.134;8.378;2023-01-31T00:31:49;1.50;99.90
49236;DHT22;35067;48.134;8.378;2023-01-31T00:33:52;1.40;99.90
49236;DHT22;35067;48.134;8.378;2023-01-31T00:35:53;1.50;99.90
49236;DHT22;35067;48.134;8.378;2023-01-31T00:37:54;1.50;99.90
49236;DHT22;35067;48.134;8.378;2023-01-31T00:39:55;1.50;99.90
49236;DHT22;35067;48.134;8.378;2023-01-31T00:41:55;1.40;99.90
49236;DHT22;35067;48.134;8.378;2023-01-31T00:43:56;1.30;99.90
49236;DHT22;35067;48.134;8.378;2023-01-31T00:45:57;1.40;99.90
49236;DHT22;35067;48.134;8.378;2023-01-31T00:47:58;1.50;99.90
49236;DHT22;35067;48.134;8.378;2023-01-31T00:49:59;1.50;99.90
49236;DHT22;35067;48.134;8.378;2023-01-31T00:52:00;1.60;99.90
49236;DHT22;35067;48.134;8.378;2023-01-31T00:54:00;1.60;99.90
49236;DHT22;35067;48.134;8.378;2023-01-31T00:56:13;1.40;99.90
49236;DHT22;35067;48.134;8.378;2023-01-31T00:58:16;1.30;99.90
49236;DHT22;35067;48.134;8.378;2023-01-31T01:00:16;1.30;99.90
49236;DHT22;35067;48.134;8.378;2023-01-31T01:02:17;1.30;99.90
49236;DHT22;35067;48.134;8.378;2023-01-31T01:04:18;1.30;99.90
49236;DHT22;35067;48.134;8.378;2023-01-31T01:06:19;1.20;99.90
49236;DHT22;35067;48.134;8.378;2023-01-31T01:08:20;1.30;99.90
49236;DHT22;35067;48.134;8.378;2023-01-31T01:10:21;1.30;99.90
49236;DHT22;35067;48.134;8.378;2023-01-31T01:12:21;1.40;99.90
49236;DHT22;35067;48.134;8.378;2023-01-31T01:14:22;1.40;99.90
49236;DHT22;35067;48.134;8.378;2023-01-31T01:16:26;1.30;99.90
49236;DHT22;35067;48.134;8.378;2023-01-31T01:18:30;1.30;99.90
49236;DHT22;35067;48.134;8.378;2023-01-31T01:20:34;1.10;99.90
49236;DHT22;35067;48.134;8.378;2023-01-31T01:22:35;1.10;99.90
49236;DHT22;35067;48.134;8.378;2023-01-31T01:24:36;1.20;99.90
49236;DHT22;35067;48.134;8.378;2023-01-31T01:26:37;1.30;99.90
49236;DHT22;35067;48.134;8.378;2023-01-31T01:28:37;1.40;99.90
49236;DHT22;35067;48.134;8.378;2023-01-31T01:30:38;1.40;99.90
49236;DHT22;35067;48.134;8.378;2023-01-31T01:32:39;1.40;99.90
49236;DHT22;35067;48.134;8.378;2023-01-31T01:34:39;1.40;99.90
49236;DHT22;35067;48.134;8.378;2023-01-31T01:36:40;1.10;99.90
49236;DHT22;35067;48.134;8.378;2023-01-31T01:38:42;1.10;99.90
49236;DHT22;35067;48.134;8.378;2023-01-31T01:40:44;1.10;99.90
49236;DHT22;35067;48.134;8.378;2023-01-31T01:42:45;1.00;99.90
49236;DHT22;35067;48.134;8.378;2023-01-31T01:44:50;0.90;99.90
49236;DHT22;35067;48.134;8.378;2023-01-31T01:46:53;0.90;99.90
49236;DHT22;35067;48.134;8.378;2023-01-31T01:49:04;0.80;99.90
49236;DHT22;35067;48.134;8.378;2023-01-31T01:51:14;0.80;99.90
49236;DHT22;35067;48.134;8.378;2023-01-31T01:53:20;0.90;99.90
49236;DHT22;35067;48.134;8.378;2023-01-31T01:55:35;0.80;99.90
49236;DHT22;35067;48.134;8.378;2023-01-31T01:57:43;1.00;99.90
49236;DHT22;35067;48.134;8.378;2023-01-31T01:59:52;1.10;99.90
49236;DHT22;35067;48.134;8.378;2023-01-31T02:01:56;1.10;99.90
49236;DHT22;35067;48.134;8.378;2023-01-31T02:03:57;0.90;99.90
49236;DHT22;35067;48.134;8.378;2023-01-31T02:06:01;0.90;99.90
49236;DHT22;35067;48.134;8.378;2023-01-31T02:08:04;0.80;99.90
49236;DHT22;35067;48.134;8.378;2023-01-31T02:10:16;0.80;99.90
49236;DHT22;35067;48.134;8.378;2023-01-31T02:12:32;0.60;99.90
49236;DHT22;35067;48.134;8.378;2023-01-31T02:14:33;0.50;99.90
49236;DHT22;35067;48.134;8.378;2023-01-31T02:16:34;0.50;99.90
49236;DHT22;35067;48.134;8.378;2023-01-31T02:18:35;0.60;99.90
49236;DHT22;35067;48.134;8.378;2023-01-31T02:23:24;0.50;99.90
49236;DHT22;35067;48.134;8.378;2023-01-31T02:28:03;0.60;99.90
49236;DHT22;35067;48.134;8.378;2023-01-31T02:30:51;0.60;99.90
49236;DHT22;35067;48.134;8.378;2023-01-31T02:36:13;0.50;99.90
49236;DHT22;35067;48.134;8.378;2023-01-31T02:41:15;0.40;99.90
49236;DHT22;35067;48.134;8.378;2023-01-31T02:43:37;0.30;99.90
49236;DHT22;35067;48.134;8.378;2023-01-31T02:46:12;0.20;99.90
49236;DHT22;35067;48.134;8.378;2023-01-31T02:48:51;0.20;99.90
49236;DHT22;35067;48.134;8.378;2023-01-31T02:53:31;0.20;99.90
49236;DHT22;35067;48.134;8.378;2023-01-31T02:55:47;0.10;99.90
49236;DHT22;35067;48.134;8.378;2023-01-31T02:58:11;0.10;99.90
49236;DHT22;35067;48.134;8.378;2023-01-31T03:00:14;-0.10;99.90
49236;DHT22;35067;48.134;8.378;2023-01-31T03:02:15;-0.10;99.90
49236;DHT22;35067;48.134;8.378;2023-01-31T03:04:16;-0.20;99.90
49236;DHT22;35067;48.134;8.378;2023-01-31T03:08:23;-0.30;99.90
49236;DHT22;35067;48.134;8.378;2023-01-31T03:15:26;-0.20;99.90
49236;DHT22;35067;48.134;8.378;2023-01-31T03:18:27;-0.40;99.90
49236;DHT22;35067;48.134;8.378;2023-01-31T03:22:59;-0.50;99.90
49236;DHT22;35067;48.134;8.378;2023-01-31T03:25:04;-0.40;99.90
49236;DHT22;35067;48.134;8.378;2023-01-31T03:27:07;-0.40;99.90
49236;DHT22;35067;48.134;8.378;2023-01-31T03:29:13;-0.40;99.90
49236;DHT22;35067;48.134;8.378;2023-01-31T03:33:40;-0.40;99.90
49236;DHT22;35067;48.134;8.378;2023-01-31T03:35:50;-0.30;99.90
49236;DHT22;35067;48.134;8.378;2023-01-31T03:38:06;-0.40;99.90
49236;DHT22;35067;48.134;8.378;2023-01-31T03:40:27;-0.50;99.90
49236;DHT22;35067;48.134;8.378;2023-01-31T03:43:01;-0.40;99.90
49236;DHT22;35067;48.134;8.378;2023-01-31T03:47:38;-0.40;99.90
49236;DHT22;35067;48.134;8.378;2023-01-31T03:49:42;-0.50;99.90
49236;DHT22;35067;48.134;8.378;2023-01-31T03:51:47;-0.50;99.90
49236;DHT22;35067;48.134;8.378;2023-01-31T03:53:53;-0.50;99.90
49236;DHT22;35067;48.134;8.378;2023-01-31T03:56:01;-0.40;99.90
49236;DHT22;35067;48.134;8.378;2023-01-31T03:58:05;-0.30;99.90
49236;DHT22;35067;48.134;8.378;2023-01-31T04:00:11;-0.30;99.90
49236;DHT22;35067;48.134;8.378;2023-01-31T04:02:15;-0.20;99.90
49236;DHT22;35067;48.134;8.378;2023-01-31T04:04:22;-0.20;99.90
49236;DHT22;35067;48.134;8.378;2023-01-31T04:06:26;-0.10;99.90
49236;DHT22;35067;48.134;8.378;2023-01-31T04:08:27;0.00;99.90
49236;DHT22;35067;48.134;8.378;2023-01-31T04:10:28;0.00;99.90
49236;DHT22;35067;48.134;8.378;2023-01-31T04:12:29;0.00;99.90
49236;DHT22;35067;48.134;8.378;2023-01-31T04:14:35;0.10;99.90
49236;DHT22;35067;48.134;8.378;2023-01-31T04:16:36;0.20;99.90
49236;DHT22;35067;48.134;8.378;2023-01-31T04:18:36;0.30;99.90
49236;DHT22;35067;48.134;8.378;2023-01-31T04:20:37;0.50;99.90
49236;DHT22;35067;48.134;8.378;2023-01-31T04:22:38;0.60;99.90
49236;DHT22;35067;48.134;8.378;2023-01-31T04:24:38;0.80;99.90
49236;DHT22;35067;48.134;8.378;2023-01-31T04:26:39;0.80;99.90
49236;DHT22;35067;48.134;8.378;2023-01-31T04:28:40;0.80;99.90
49236;DHT22;35067;48.134;8.378;2023-01-31T04:30:41;0.70;99.90
49236;DHT22;35067;48.134;8.378;2023-01-31T04:32:41;0.80;99.90
49236;DHT22;35067;48.134;8.378;2023-01-31T04:34:42;0.80;99.90
49236;DHT22;35067;48.134;8.378;2023-01-31T04:36:43;0.90;99.90
49236;DHT22;35067;48.134;8.378;2023-01-31T04:38:43;1.00;99.90
49236;DHT22;35067;48.134;8.378;2023-01-31T04:40:44;1.00;99.90
49236;DHT22;35067;48.134;8.378;2023-01-31T04:42:45;0.90;99.90
49236;DHT22;35067;48.134;8.378;2023-01-31T04:44:46;0.70;99.90
49236;DHT22;35067;48.134;8.378;2023-01-31T04:46:46;0.50;99.90
49236;DHT22;35067;48.134;8.378;2023-01-31T04:48:47;0.60;99.90
49236;DHT22;35067;48.134;8.378;2023-01-31T04:50:48;0.60;99.90
49236;DHT22;35067;48.134;8.378;2023-01-31T04:52:49;0.60;99.90
49236;DHT22;35067;48.134;8.378;2023-01-31T04:54:50;0.40;99.90
49236;DHT22;35067;48.134;8.378;2023-01-31T04:56:51;0.40;99.90
49236;DHT22;35067;48.134;8.378;2023-01-31T04:58:52;0.30;99.90
49236;DHT22;35067;48.134;8.378;2023-01-31T05:00:53;0.30;99.90
49236;DHT22;35067;48.134;8.378;2023-01-31T05:02:54;0.30;99.90
49236;DHT22;35067;48.134;8.378;2023-01-31T05:04:54;0.40;99.90
49236;DHT22;35067;48.134;8.378;2023-01-31T05:06:55;0.30;99.90
49236;DHT22;35067;48.134;8.378;2023-01-31T05:08:56;0.30;99.90
49236;DHT22;35067;48.134;8.378;2023-01-31T05:11:01;0.20;99.90
49236;DHT22;35067;48.134;8.378;2023-01-31T05:13:03;0.20;99.90
49236;DHT22;35067;48.134;8.378;2023-01-31T05:15:05;0.40;99.90
49236;DHT22;35067;48.134;8.378;2023-01-31T05:17:10;0.40;99.90
49236;DHT22;35067;48.134;8.378;2023-01-31T05:19:11;0.40;99.90
49236;DHT22;35067;48.134;8.378;2023-01-31T05:21:15;0.40;99.90
49236;DHT22;35067;48.134;8.378;2023-01-31T05:23:16;0.50;99.90
49236;DHT22;35067;48.134;8.378;2023-01-31T05:25:18;0.60;99.90
49236;DHT22;35067;48.134;8.378;2023-01-31T05:27:18;0.60;99.90
49236;DHT22;35067;48.134;8.378;2023-01-31T05:29:19;0.60;99.90
49236;DHT22;35067;48.134;8.378;2023-01-31T05:31:20;0.60;99.90
49236;DHT22;35067;48.134;8.378;2023-01-31T05:33:20;0.70;99.90
49236;DHT22;35067;48.134;8.378;2023-01-31T05:35:21;0.80;99.90
49236;DHT22;35067;48.134;8.378;2023-01-31T05:37:22;0.90;99.90
49236;DHT22;35067;48.134;8.378;2023-01-31T05:39:22;0.90;99.90
49236;DHT22;35067;48.134;8.378;2023-01-31T05:41:23;0.90;99.90
49236;DHT22;35067;48.134;8.378;2023-01-31T05:43:24;0.80;99.90
49236;DHT22;35067;48.134;8.378;2023-01-31T05:45:25;0.80;99.90
49236;DHT22;35067;48.134;8.378;2023-01-31T05:47:26;0.70;99.90
49236;DHT22;35067;48.134;8.378;2023-01-31T05:49:26;0.70;99.90
49236;DHT22;35067;48.134;8.378;2023-01-31T05:51:32;0.70;99.90
49236;DHT22;35067;48.134;8.378;2023-01-31T05:53:33;0.60;99.90
49236;DHT22;35067;48.134;8.378;2023-01-31T05:55:33;0.50;99.90
49236;DHT22;35067;48.134;8.378;2023-01-31T05:57:34;0.60;99.90
49236;DHT22;35067;48.134;8.378;2023-01-31T05:59:35;0.60;99.90
49236;DHT22;35067;48.134;8.378;2023-01-31T06:01:36;0.60;99.90
49236;DHT22;35067;48.134;8.378;2023-01-31T06:03:36;0.80;99.90
49236;DHT22;35067;48.134;8.378;2023-01-31T06:05:37;0.90;99.90
49236;DHT22;35067;48.134;8.378;2023-01-31T06:07:40;0.80;99.90
49236;DHT22;35067;48.134;8.378;2023-01-31T06:09:40;0.70;99.90
49236;DHT22;35067;48.134;8.378;2023-01-31T06:11:41;0.80;99.90
49236;DHT22;35067;48.134;8.378;2023-01-31T06:13:42;0.90;99.90
49236;DHT22;35067;48.134;8.378;2023-01-31T06:15:43;0.80;99.90
49236;DHT22;35067;48.134;8.378;2023-01-31T06:17:44;0.70;99.90
49236;DHT22;35067;48.134;8.378;2023-01-31T06:19:45;0.90;99.90
49236;DHT22;35067;48.134;8.378;2023-01-31T06:21:45;0.80;99.90
49236;DHT22;35067;48.134;8.378;2023-01-31T06:23:46;0.90;99.90
49236;DHT22;35067;48.134;8.378;2023-01-31T06:25:50;0.90;99.90
49236;DHT22;35067;48.134;8.378;2023-01-31T06:27:54;0.90;99.90
49236;DHT22;35067;48.134;8.378;2023-01-31T06:29:55;0.80;99.90
49236;DHT22;35067;48.134;8.378;2023-01-31T06:31:56;0.70;99.90
49236;DHT22;35067;48.134;8.378;2023-01-31T06:33:56;0.40;99.90
49236;DHT22;35067;48.134;8.378;2023-01-31T06:35:58;0.40;99.90
49236;DHT22;35067;48.134;8.378;2023-01-31T06:37:59;0.30;99.90
49236;DHT22;35067;48.134;8.378;2023-01-31T06:40:00;0.20;99.90
49236;DHT22;35067;48.134;8.378;2023-01-31T06:42:00;0.10;99.90
49236;DHT22;35067;48.134;8.378;2023-01-31T06:44:01;0.00;99.90
49236;DHT22;35067;48.134;8.378;2023-01-31T06:46:02;-0.10;99.90
49236;DHT22;35067;48.134;8.378;2023-01-31T06:48:03;-0.20;99.90
49236;DHT22;35067;48.134;8.378;2023-01-31T06:50:04;-0.30;99.90
49236;DHT22;35067;48.134;8.378;2023-01-31T06:52:05;-0.20;99.90
49236;DHT22;35067;48.134;8.378;2023-01-31T06:54:05;-0.30;99.90
49236;DHT22;35067;48.134;8.378;2023-01-31T06:56:07;-0.40;99.90
49236;DHT22;35067;48.134;8.378;2023-01-31T06:58:08;-0.40;99.90
49236;DHT22;35067;48.134;8.378;2023-01-31T07:00:09;-0.40;99.90
49236;DHT22;35067;48.134;8.378;2023-01-31T07:02:11;-0.50;99.90
49236;DHT22;35067;48.134;8.378;2023-01-31T07:04:12;-0.50;99.90
49236;DHT22;35067;48.134;8.378;2023-01-31T07:06:12;-0.60;99.90
49236;DHT22;35067;48.134;8.378;2023-01-31T07:08:13;-0.70;99.90
49236;DHT22;35067;48.134;8.378;2023-01-31T07:10:15;-0.70;99.90
49236;DHT22;35067;48.134;8.378;2023-01-31T07:12:16;-0.70;99.90
49236;DHT22;35067;48.134;8.378;2023-01-31T07:14:17;-0.80;99.90
49236;DHT22;35067;48.134;8.378;2023-01-31T07:16:18;-0.80;99.90
49236;DHT22;35067;48.134;8.378;2023-01-31T07:18:19;-0.90;99.90
49236;DHT22;35067;48.134;8.378;2023-01-31T07:20:19;-1.00;99.90
49236;DHT22;35067;48.134;8.378;2023-01-31T07:22:20;-1.00;99.90
49236;DHT22;35067;48.134;8.378;2023-01-31T07:24:21;-1.00;99.90
49236;DHT22;35067;48.134;8.378;2023-01-31T07:26:21;-1.10;99.90
49236;DHT22;35067;48.134;8.378;2023-01-31T07:28:22;-1.10;99.90
49236;DHT22;35067;48.134;8.378;2023-01-31T07:30:23;-1.20;99.90
49236;DHT22;35067;48.134;8.378;2023-01-31T07:32:27;-1.20;99.90
49236;DHT22;35067;48.134;8.378;2023-01-31T07:34:30;-1.20;99.90
49236;DHT22;35067;48.134;8.378;2023-01-31T07:36:31;-1.10;99.90
49236;DHT22;35067;48.134;8.378;2023-01-31T07:38:32;-1.20;99.90
49236;DHT22;35067;48.134;8.378;2023-01-31T07:40:34;-1.10;99.90
49236;DHT22;35067;48.134;8.378;2023-01-31T07:42:34;-1.10;99.90
49236;DHT22;35067;48.134;8.378;2023-01-31T07:44:35;-1.00;99.90
49236;DHT22;35067;48.134;8.378;2023-01-31T07:46:36;-1.00;99.90
49236;DHT22;35067;48.134;8.378;2023-01-31T07:48:37;-0.90;99.90
49236;DHT22;35067;48.134;8.378;2023-01-31T07:50:38;-1.00;99.90
49236;DHT22;35067;48.134;8.378;2023-01-31T07:52:39;-1.00;99.90
49236;DHT22;35067;48.134;8.378;2023-01-31T07:54:39;-1.00;99.90
49236;DHT22;35067;48.134;8.378;2023-01-31T07:56:40;-1.00;99.90
49236;DHT22;35067;48.134;8.378;2023-01-31T07:58:42;-0.90;99.90
49236;DHT22;35067;48.134;8.378;2023-01-31T08:00:43;-1.00;99.90
49236;DHT22;35067;48.134;8.378;2023-01-31T08:03:03;-1.00;99.90
49236;DHT22;35067;48.134;8.378;2023-01-31T08:05:22;-0.90;99.90
49236;DHT22;35067;48.134;8.378;2023-01-31T08:07:24;-0.90;99.90
49236;DHT22;35067;48.134;8.378;2023-01-31T08:09:25;-0.90;99.90
49236;DHT22;35067;48.134;8.378;2023-01-31T08:11:26;-0.80;99.90
49236;DHT22;35067;48.134;8.378;2023-01-31T08:13:26;-0.80;99.90
49236;DHT22;35067;48.134;8.378;2023-01-31T08:15:27;-0.80;99.90
49236;DHT22;35067;48.134;8.378;2023-01-31T08:17:28;-0.80;99.90
49236;DHT22;35067;48.134;8.378;2023-01-31T08:19:29;-0.80;99.90
49236;DHT22;35067;48.134;8.378;2023-01-31T08:21:30;-0.70;99.90
49236;DHT22;35067;48.134;8.378;2023-01-31T08:23:31;-0.60;99.90
49236;DHT22;35067;48.134;8.378;2023-01-31T08:25:32;-0.60;99.90
49236;DHT22;35067;48.134;8.378;2023-01-31T08:27:33;-0.50;99.90
49236;DHT22;35067;48.134;8.378;2023-01-31T08:29:33;-0.40;99.90
49236;DHT22;35067;48.134;8.378;2023-01-31T08:31:35;-0.40;99.90
49236;DHT22;35067;48.134;8.378;2023-01-31T08:33:36;-0.30;99.90
49236;DHT22;35067;48.134;8.378;2023-01-31T08:35:37;-0.10;99.90
49236;DHT22;35067;48.134;8.378;2023-01-31T08:37:38;0.00;99.90
49236;DHT22;35067;48.134;8.378;2023-01-31T08:39:39;0.10;99.90
49236;DHT22;35067;48.134;8.378;2023-01-31T08:41:40;0.20;99.90
49236;DHT22;35067;48.134;8.378;2023-01-31T08:43:40;0.30;99.90
49236;DHT22;35067;48.134;8.378;2023-01-31T08:45:41;0.30;99.90
49236;DHT22;35067;48.134;8.378;2023-01-31T08:47:42;0.40;99.90
49236;DHT22;35067;48.134;8.378;2023-01-31T08:49:43;0.30;99.90
49236;DHT22;35067;48.134;8.378;2023-01-31T08:51:43;0.30;99.90
49236;DHT22;35067;48.134;8.378;2023-01-31T08:53:44;0.40;99.90
49236;DHT22;35067;48.134;8.378;2023-01-31T08:55:45;0.30;99.90
49236;DHT22;35067;48.134;8.378;2023-01-31T08:57:45;0.40;99.90
49236;DHT22;35067;48.134;8.378;2023-01-31T08:59:46;0.50;99.90
49236;DHT22;35067;48.134;8.378;2023-01-31T09:01:47;0.60;99.90
49236;DHT22;35067;48.134;8.378;2023-01-31T09:03:48;0.70;99.90
49236;DHT22;35067;48.134;8.378;2023-01-31T09:05:49;0.70;99.90
49236;DHT22;35067;48.134;8.378;2023-01-31T09:07:50;0.80;99.90
49236;DHT22;35067;48.134;8.378;2023-01-31T09:09:51;0.90;99.90
49236;DHT22;35067;48.134;8.378;2023-01-31T09:11:52;1.00;99.90
49236;DHT22;35067;48.134;8.378;2023-01-31T09:13:52;0.90;99.90
49236;DHT22;35067;48.134;8.378;2023-01-31T09:16:01;0.90;99.90
49236;DHT22;35067;48.134;8.378;2023-01-31T09:18:03;0.90;99.90
49236;DHT22;35067;48.134;8.378;2023-01-31T09:20:06;1.00;99.90
49236;DHT22;35067;48.134;8.378;2023-01-31T09:22:08;1.20;99.90
49236;DHT22;35067;48.134;8.378;2023-01-31T09:24:09;1.30;99.90
49236;DHT22;35067;48.134;8.378;2023-01-31T09:26:11;1.50;99.90
49236;DHT22;35067;48.134;8.378;2023-01-31T09:28:12;1.70;99.90
49236;DHT22;35067;48.134;8.378;2023-01-31T09:30:13;1.90;99.90
49236;DHT22;35067;48.134;8.378;2023-01-31T09:32:15;2.20;99.00
49236;DHT22;35067;48.134;8.378;2023-01-31T09:34:15;2.50;98.00
49236;DHT22;35067;48.134;8.378;2023-01-31T09:36:18;2.50;97.10
49236;DHT22;35067;48.134;8.378;2023-01-31T09:38:20;2.50;96.40
49236;DHT22;35067;48.134;8.378;2023-01-31T09:40:22;2.50;97.10
49236;DHT22;35067;48.134;8.378;2023-01-31T09:42:32;2.50;96.70
49236;DHT22;35067;48.134;8.378;2023-01-31T09:44:41;2.90;97.20
49236;DHT22;35067;48.134;8.378;2023-01-31T09:46:51;3.40;93.80
49236;DHT22;35067;48.134;8.378;2023-01-31T09:48:56;3.60;93.30
49236;DHT22;35067;48.134;8.378;2023-01-31T09:50:58;3.60;92.80
49236;DHT22;35067;48.134;8.378;2023-01-31T09:52:59;3.90;92.90
49236;DHT22;35067;48.134;8.378;2023-01-31T09:54:59;4.50;91.60
49236;DHT22;35067;48.134;8.378;2023-01-31T09:59:33;4.60;88.20
49236;DHT22;35067;48.134;8.378;2023-01-31T10:06:57;4.20;90.70
49236;DHT22;35067;48.134;8.378;2023-01-31T10:14:03;4.60;90.30
49236;DHT22;35067;48.134;8.378;2023-01-31T10:16:24;4.50;89.80
49236;DHT22;35067;48.134;8.378;2023-01-31T10:18:34;4.70;90.00
49236;DHT22;35067;48.134;8.378;2023-01-31T10:20:46;5.10;86.40
49236;DHT22;35067;48.134;8.378;2023-01-31T10:25:51;4.80;84.90
49236;DHT22;35067;48.134;8.378;2023-01-31T10:31:05;4.70;86.50
49236;DHT22;35067;48.134;8.378;2023-01-31T10:33:37;4.50;87.80
49236;DHT22;35067;48.134;8.378;2023-01-31T10:35:43;4.60;84.90
49236;DHT22;35067;48.134;8.378;2023-01-31T10:37:58;4.70;84.90
49236;DHT22;35067;48.134;8.378;2023-01-31T10:40:12;4.90;82.00
49236;DHT22;35067;48.134;8.378;2023-01-31T10:42:50;5.00;82.80
49236;DHT22;35067;48.134;8.378;2023-01-31T10:44:58;5.10;79.10
49236;DHT22;35067;48.134;8.378;2023-01-31T10:47:15;5.10;78.50
49236;DHT22;35067;48.134;8.378;2023-01-31T10:49:19;4.90;79.10
49236;DHT22;35067;48.134;8.378;2023-01-31T10:54:28;5.10;80.30
49236;DHT22;35067;48.134;8.378;2023-01-31T10:56:44;6.20;74.50
49236;DHT22;35067;48.134;8.378;2023-01-31T10:58:46;7.00;71.90
49236;DHT22;35067;48.134;8.378;2023-01-31T11:00:47;7.60;67.00
49236;DHT22;35067;48.134;8.378;2023-01-31T11:02:49;7.90;65.60
49236;DHT22;35067;48.134;8.378;2023-01-31T11:04:52;7.80;63.80
49236;DHT22;35067;48.134;8.378;2023-01-31T11:06:59;8.20;63.00
49236;DHT22;35067;48.134;8.378;2023-01-31T11:09:02;8.20;62.30
49236;DHT22;35067;48.134;8.378;2023-01-31T11:11:10;9.10;59.70
49236;DHT22;35067;48.134;8.378;2023-01-31T11:13:17;8.90;59.30
49236;DHT22;35067;48.134;8.378;2023-01-31T11:15:19;8.80;60.60
49236;DHT22;35067;48.134;8.378;2023-01-31T11:17:23;7.80;58.30
49236;DHT22;35067;48.134;8.378;2023-01-31T11:21:52;5.90;67.80
49236;DHT22;35067;48.134;8.378;2023-01-31T11:24:12;5.40;69.90
49236;DHT22;35067;48.134;8.378;2023-01-31T11:26:56;5.70;71.30
49236;DHT22;35067;48.134;8.378;2023-01-31T11:29:17;6.30;68.50
49236;DHT22;35067;48.134;8.378;2023-01-31T11:31:32;6.60;66.20
49236;DHT22;35067;48.134;8.378;2023-01-31T11:33:47;6.80;65.70
49236;DHT22;35067;48.134;8.378;2023-01-31T11:35:56;7.20;63.40
49236;DHT22;35067;48.134;8.378;2023-01-31T11:40:20;8.00;59.70
49236;DHT22;35067;48.134;8.378;2023-01-31T11:42:27;8.50;59.70
49236;DHT22;35067;48.134;8.378;2023-01-31T11:44:27;8.80;56.00
49236;DHT22;35067;48.134;8.378;2023-01-31T11:46:28;8.30;57.20
49236;DHT22;35067;48.134;8.378;2023-01-31T11:48:40;8.40;58.60
49236;DHT22;35067;48.134;8.378;2023-01-31T11:50:45;8.70;56.60
49236;DHT22;35067;48.134;8.378;2023-01-31T11:55:21;8.90;55.90
49236;DHT22;35067;48.134;8.378;2023-01-31T11:57:24;8.30;58.20
49236;DHT22;35067;48.134;8.378;2023-01-31T11:59:28;7.90;59.10
49236;DHT22;35067;48.134;8.378;2023-01-31T12:01:31;6.70;62.50
49236;DHT22;35067;48.134;8.378;2023-01-31T12:03:32;6.20;67.30
49236;DHT22;35067;48.134;8.378;2023-01-31T12:05:42;5.90;69.10
49236;DHT22;35067;48.134;8.378;2023-01-31T12:07:47;5.60;71.30
49236;DHT22;35067;48.134;8.378;2023-01-31T12:09:56;6.00;71.80
49236;DHT22;35067;48.134;8.378;2023-01-31T12:12:01;6.30;69.30
49236;DHT22;35067;48.134;8.378;2023-01-31T12:16:06;6.20;70.60
49236;DHT22;35067;48.134;8.378;2023-01-31T12:18:08;5.80;71.10
49236;DHT22;35067;48.134;8.378;2023-01-31T12:22:42;4.50;78.60
49236;DHT22;35067;48.134;8.378;2023-01-31T12:37:30;4.20;83.30
49236;DHT22;35067;48.134;8.378;2023-01-31T12:42:45;4.10;81.50
49236;DHT22;35067;48.134;8.378;2023-01-31T12:49:55;4.60;82.00
49236;DHT22;35067;48.134;8.378;2023-01-31T13:06:18;4.50;82.00
49236;DHT22;35067;48.134;8.378;2023-01-31T13:08:26;4.20;83.00
49236;DHT22;35067;48.134;8.378;2023-01-31T13:10:39;4.10;83.50
49236;DHT22;35067;48.134;8.378;2023-01-31T13:12:44;4.20;83.40
49236;DHT22;35067;48.134;8.378;2023-01-31T13:15:17;4.00;83.70
49236;DHT22;35067;48.134;8.378;2023-01-31T13:17:27;3.90;85.40
49236;DHT22;35067;48.134;8.378;2023-01-31T13:19:53;3.90;87.10
49236;DHT22;35067;48.134;8.378;2023-01-31T13:22:03;4.00;87.90
49236;DHT22;35067;48.134;8.378;2023-01-31T13:24:13;3.90;89.30
49236;DHT22;35067;48.134;8.378;2023-01-31T13:26:20;4.10;90.00
49236;DHT22;35067;48.134;8.378;2023-01-31T13:28:32;4.20;86.90
49236;DHT22;35067;48.134;8.378;2023-01-31T13:30:56;4.20;86.20
49236;DHT22;35067;48.134;8.378;2023-01-31T13:32:59;3.80;87.00
49236;DHT22;35067;48.134;8.378;2023-01-31T13:35:14;3.70;90.20
49236;DHT22;35067;48.134;8.378;2023-01-31T13:37:18;3.60;90.10
49236;DHT22;35067;48.134;8.378;2023-01-31T13:41:41;3.70;90.90
49236;DHT22;35067;48.134;8.378;2023-01-31T13:43:42;3.80;90.50
49236;DHT22;35067;48.134;8.378;2023-01-31T13:45:49;3.60;90.90
49236;DHT22;35067;48.134;8.378;2023-01-31T13:48:23;3.50;91.30
49236;DHT22;35067;48.134;8.378;2023-01-31T13:50:38;3.40;92.40
49236;DHT22;35067;48.134;8.378;2023-01-31T13:52:48;3.60;92.00
49236;DHT22;35067;48.134;8.378;2023-01-31T13:54:55;3.60;91.80
49236;DHT22;35067;48.134;8.378;2023-01-31T13:56:59;3.40;92.30
49236;DHT22;35067;48.134;8.378;2023-01-31T13:59:01;3.40;92.00
49236;DHT22;35067;48.134;8.378;2023-01-31T14:01:13;3.40;92.10
49236;DHT22;35067;48.134;8.378;2023-01-31T14:03:19;3.70;91.70
49236;DHT22;35067;48.134;8.378;2023-01-31T14:07:42;5.10;86.40
49236;DHT22;35067;48.134;8.378;2023-01-31T14:11:49;8.00;71.10
49236;DHT22;35067;48.134;8.378;2023-01-31T14:14:20;8.10;66.90
49236;DHT22;35067;48.134;8.378;2023-01-31T14:16:43;7.50;67.30
49236;DHT22;35067;48.134;8.378;2023-01-31T14:18:45;7.50;69.50
49236;DHT22;35067;48.134;8.378;2023-01-31T14:20:46;8.10;67.00
49236;DHT22;35067;48.134;8.378;2023-01-31T14:25:43;7.30;68.10
49236;DHT22;35067;48.134;8.378;2023-01-31T14:30:07;6.60;70.40
49236;DHT22;35067;48.134;8.378;2023-01-31T14:34:48;5.50;75.70
49236;DHT22;35067;48.134;8.378;2023-01-31T14:39:19;4.90;78.20
49236;DHT22;35067;48.134;8.378;2023-01-31T14:41:50;4.50;79.80
49236;DHT22;35067;48.134;8.378;2023-01-31T14:44:32;4.20;82.20
49236;DHT22;35067;48.134;8.378;2023-01-31T14:49:26;4.40;82.10
49236;DHT22;35067;48.134;8.378;2023-01-31T14:57:30;3.90;86.00
49236;DHT22;35067;48.134;8.378;2023-01-31T14:59:43;3.70;88.00
49236;DHT22;35067;48.134;8.378;2023-01-31T15:01:52;3.60;89.30
49236;DHT22;35067;48.134;8.378;2023-01-31T15:03:56;3.50;90.00
49236;DHT22;35067;48.134;8.378;2023-01-31T15:06:21;3.50;90.70
49236;DHT22;35067;48.134;8.378;2023-01-31T15:11:02;3.50;90.50
49236;DHT22;35067;48.134;8.378;2023-01-31T15:13:36;3.60;90.80
49236;DHT22;35067;48.134;8.378;2023-01-31T15:15:38;3.90;89.60
49236;DHT22;35067;48.134;8.378;2023-01-31T15:17:39;5.00;85.60
49236;DHT22;35067;48.134;8.378;2023-01-31T15:19:48;5.80;78.60
49236;DHT22;35067;48.134;8.378;2023-01-31T15:21:53;5.50;78.60
49236;DHT22;35067;48.134;8.378;2023-01-31T15:23:57;5.00;82.30
49236;DHT22;35067;48.134;8.378;2023-01-31T15:26:00;4.60;84.90